Wardeh — ODUS — position and weather

sailwx.info

Track history (hours):
 
Tides and Currents Weather Stations Pressure Air Temp Water Temp Dewpoint Dewpoint Depression Visibility Wind Speed Wind Dir Waves Ship Positions

Wardeh

Last reported at 2016-May-25 01:33 UTC. Time now 2016-May-26 00:42 UTC.
Position N 35°58' W 005°34'.

Length 131 m; draft 6.4 m.

Type: Cargo ship. MMSI: 450522000.

Date/timePositionNaut miles runAvg speedWind from/ knotsBaromVisibWave heightAir tempDewpointWater temp
2016-May-25 01:33N 35°58' W 005°34'1212.2
2016-May-25 00:33N 36°01' W 005°19'235 5.1
2016-May-23 02:23N 37°31' W 000°48'8 8.9
2016-May-23 01:26N 37°29' W 000°38'910.7
2016-May-23 00:33N 37°28' W 000°26'1211.8
2016-May-22 23:32N 37°28' W 000°11'1211.8
2016-May-22 22:33N 37°28' E 000°03'1211.5
2016-May-22 21:32N 37°29' E 000°18'1713.9
2016-May-22 20:21N 37°29' E 000°39'1214.9
2016-May-22 19:33N 37°29' E 000°54'1515.3
2016-May-22 18:33N 37°30' E 001°13'1515.1
2016-May-22 17:33N 37°30' E 001°32'1914.9
2016-May-22 16:15N 37°31' E 001°57'1014.9
2016-May-22 15:33N 37°31' E 002°10'1515.6
2016-May-22 14:33N 37°31' E 002°29'1615.6
2016-May-22 13:33N 37°31' E 002°49'1615.2
2016-May-22 12:30N 37°32' E 003°09'1414.8
2016-May-22 11:33N 37°32' E 003°27'1514.7
2016-May-22 10:33N 37°32' E 003°45'1414.4
2016-May-22 09:33N 37°33' E 004°03'2014.7
2016-May-22 08:11N 37°33' E 004°29'1015.4
2016-May-22 07:33N 37°33' E 004°41'1915.3
2016-May-22 06:17N 37°34' E 005°06'1215.1
2016-May-22 05:30N 37°34' E 005°20'16415.0
2016-May-21 18:32N 37°38' E 008°47'1514.9
2016-May-21 17:32N 37°38' E 009°06'1515.5
2016-May-21 16:32N 37°38' E 009°26'22813.4
2016-May-20 23:33N 36°19' E 013°53'1413.5
2016-May-20 22:33N 36°13' E 014°08'1313.1
2016-May-20 21:33N 36°07' E 014°23'1312.7
2016-May-20 20:33N 35°57' E 014°32'3 0.4
2016-May-20 12:20N 35°54' E 014°31'4 4.9
2016-May-20 11:33N 35°57' E 014°35'3 2.8
2016-May-20 10:33N 35°54' E 014°36'6 5.5
2016-May-20 09:32N 35°49' E 014°39'2 2.1
2016-May-20 08:33N 35°50' E 014°37'1313.3
2016-May-20 07:33N 35°47' E 014°53'20215.6
2016-May-19 18:33N 34°54' E 018°53'2215.2
2016-May-19 17:07N 34°48' E 019°18'65214.8
2016-May-17 21:06N 31°49' E 031°49'1315.2
2016-May-17 20:14N 31°43' E 032°02'1215.1
2016-May-17 19:27N 31°34' E 032°12'1314.2
2016-May-17 18:33N 31°24' E 032°21'9 2.0
2016-May-17 14:03N 31°15' E 032°18'  
Track history (hours):
 
Tides and Currents Weather Stations Pressure Air Temp Water Temp Dewpoint Dewpoint Depression Visibility Wind Speed Wind Dir Waves Ship Positions

Wardeh

Last reported at 2016-May-25 01:33 UTC. Time now 2016-May-26 00:42 UTC.
Position N 35°58' W 005°34'.

Length 131 m; draft 6.4 m.

Type: Cargo ship. MMSI: 450522000.

Date/timePositionNaut miles runAvg speedWind from/ knotsBaromVisibWave heightAir tempDewpointWater temp
2016-May-25 01:33N 35°58' W 005°34'1212.2
2016-May-25 00:33N 36°01' W 005°19'235 5.1
2016-May-23 02:23N 37°31' W 000°48'8 8.9
2016-May-23 01:26N 37°29' W 000°38'910.7
2016-May-23 00:33N 37°28' W 000°26'1211.8
2016-May-22 23:32N 37°28' W 000°11'1211.8
2016-May-22 22:33N 37°28' E 000°03'1211.5
2016-May-22 21:32N 37°29' E 000°18'1713.9
2016-May-22 20:21N 37°29' E 000°39'1214.9
2016-May-22 19:33N 37°29' E 000°54'1515.3
2016-May-22 18:33N 37°30' E 001°13'1515.1
2016-May-22 17:33N 37°30' E 001°32'1914.9
2016-May-22 16:15N 37°31' E 001°57'1014.9
2016-May-22 15:33N 37°31' E 002°10'1515.6
2016-May-22 14:33N 37°31' E 002°29'1615.6
2016-May-22 13:33N 37°31' E 002°49'1615.2
2016-May-22 12:30N 37°32' E 003°09'1414.8
2016-May-22 11:33N 37°32' E 003°27'1514.7
2016-May-22 10:33N 37°32' E 003°45'1414.4
2016-May-22 09:33N 37°33' E 004°03'2014.7
2016-May-22 08:11N 37°33' E 004°29'1015.4
2016-May-22 07:33N 37°33' E 004°41'1915.3
2016-May-22 06:17N 37°34' E 005°06'1215.1
2016-May-22 05:30N 37°34' E 005°20'16415.0
2016-May-21 18:32N 37°38' E 008°47'1514.9
2016-May-21 17:32N 37°38' E 009°06'1515.5
2016-May-21 16:32N 37°38' E 009°26'22813.4
2016-May-20 23:33N 36°19' E 013°53'1413.5
2016-May-20 22:33N 36°13' E 014°08'1313.1
2016-May-20 21:33N 36°07' E 014°23'1312.7
2016-May-20 20:33N 35°57' E 014°32'3 0.4
2016-May-20 12:20N 35°54' E 014°31'4 4.9
2016-May-20 11:33N 35°57' E 014°35'3 2.8
2016-May-20 10:33N 35°54' E 014°36'6 5.5
2016-May-20 09:32N 35°49' E 014°39'2 2.1
2016-May-20 08:33N 35°50' E 014°37'1313.3
2016-May-20 07:33N 35°47' E 014°53'20215.6
2016-May-19 18:33N 34°54' E 018°53'2215.2
2016-May-19 17:07N 34°48' E 019°18'65214.8
2016-May-17 21:06N 31°49' E 031°49'1315.2
2016-May-17 20:14N 31°43' E 032°02'1215.1
2016-May-17 19:27N 31°34' E 032°12'1314.2
2016-May-17 18:33N 31°24' E 032°21'9 2.0
2016-May-17 14:03N 31°15' E 032°18'  

Dump ship's entire track history